sensor_id;sensor_type;location;lat;lon;timestamp;pressure;altitude;pressure_sealevel;temperature;humidity
51383;BME280;37475;43.358;1.248;2024-02-28T00:01:26;99866.66;;;5.95;100.00
51383;BME280;37475;43.358;1.248;2024-02-28T00:03:54;99841.22;;;5.76;100.00
51383;BME280;37475;43.358;1.248;2024-02-28T00:06:20;99863.50;;;5.90;100.00
51383;BME280;37475;43.358;1.248;2024-02-28T00:08:47;99869.34;;;5.90;100.00
51383;BME280;37475;43.358;1.248;2024-02-28T00:11:16;99834.84;;;5.66;100.00
51383;BME280;37475;43.358;1.248;2024-02-28T00:13:42;99881.16;;;5.90;100.00
51383;BME280;37475;43.358;1.248;2024-02-28T00:16:09;99879.34;;;5.93;100.00
51383;BME280;37475;43.358;1.248;2024-02-28T00:18:37;99881.38;;;5.83;100.00
51383;BME280;37475;43.358;1.248;2024-02-28T00:21:05;99882.38;;;5.79;100.00
51383;BME280;37475;43.358;1.248;2024-02-28T00:23:31;99906.28;;;5.94;100.00
51383;BME280;37475;43.358;1.248;2024-02-28T00:25:59;99882.28;;;5.82;100.00
51383;BME280;37475;43.358;1.248;2024-02-28T00:28:26;99902.94;;;5.94;100.00
51383;BME280;37475;43.358;1.248;2024-02-28T00:30:53;99904.59;;;5.93;100.00
51383;BME280;37475;43.358;1.248;2024-02-28T00:33:20;99905.56;;;5.91;100.00
51383;BME280;37475;43.358;1.248;2024-02-28T00:35:46;99843.00;;;5.49;100.00
51383;BME280;37475;43.358;1.248;2024-02-28T00:38:15;99881.69;;;5.74;100.00
51383;BME280;37475;43.358;1.248;2024-02-28T00:40:41;99899.78;;;5.87;100.00
51383;BME280;37475;43.358;1.248;2024-02-28T00:43:08;99909.25;;;5.80;100.00
51383;BME280;37475;43.358;1.248;2024-02-28T00:45:35;99912.88;;;5.73;100.00
51383;BME280;37475;43.358;1.248;2024-02-28T00:48:02;99913.69;;;5.74;100.00
51383;BME280;37475;43.358;1.248;2024-02-28T00:50:28;99906.94;;;5.74;100.00
51383;BME280;37475;43.358;1.248;2024-02-28T00:52:55;99901.41;;;5.63;100.00
51383;BME280;37475;43.358;1.248;2024-02-28T00:55:23;99899.59;;;5.68;100.00
51383;BME280;37475;43.358;1.248;2024-02-28T00:57:50;99863.28;;;5.45;100.00
51383;BME280;37475;43.358;1.248;2024-02-28T01:00:17;99896.78;;;5.51;100.00
51383;BME280;37475;43.358;1.248;2024-02-28T01:02:44;99921.47;;;5.68;100.00
51383;BME280;37475;43.358;1.248;2024-02-28T01:05:10;99916.47;;;5.66;100.00
51383;BME280;37475;43.358;1.248;2024-02-28T01:07:37;99920.06;;;5.59;100.00
51383;BME280;37475;43.358;1.248;2024-02-28T01:10:05;99922.41;;;5.65;100.00
51383;BME280;37475;43.358;1.248;2024-02-28T01:12:33;99898.22;;;5.58;100.00
51383;BME280;37475;43.358;1.248;2024-02-28T01:15:00;99897.44;;;5.56;100.00
51383;BME280;37475;43.358;1.248;2024-02-28T01:17:26;99899.88;;;5.59;100.00
51383;BME280;37475;43.358;1.248;2024-02-28T01:19:53;99930.06;;;5.62;100.00
51383;BME280;37475;43.358;1.248;2024-02-28T01:22:20;99930.06;;;5.62;100.00
51383;BME280;37475;43.358;1.248;2024-02-28T01:24:46;99919.13;;;5.61;100.00
51383;BME280;37475;43.358;1.248;2024-02-28T01:27:13;99928.41;;;5.61;100.00
51383;BME280;37475;43.358;1.248;2024-02-28T01:29:41;99924.22;;;5.60;100.00
51383;BME280;37475;43.358;1.248;2024-02-28T01:32:08;99900.38;;;5.43;100.00
51383;BME280;37475;43.358;1.248;2024-02-28T01:34:34;99920.06;;;5.59;100.00
51383;BME280;37475;43.358;1.248;2024-02-28T01:37:01;99925.13;;;5.59;100.00
51383;BME280;37475;43.358;1.248;2024-02-28T01:39:28;99926.88;;;5.57;100.00
51383;BME280;37475;43.358;1.248;2024-02-28T01:41:55;99920.16;;;5.56;100.00
51383;BME280;37475;43.358;1.248;2024-02-28T01:44:22;99921.84;;;5.57;100.00
51383;BME280;37475;43.358;1.248;2024-02-28T01:46:51;99857.38;;;5.20;100.00
51383;BME280;37475;43.358;1.248;2024-02-28T01:49:20;99916.88;;;5.54;100.00
51383;BME280;37475;43.358;1.248;2024-02-28T01:51:46;99918.59;;;5.52;100.00
51383;BME280;37475;43.358;1.248;2024-02-28T01:54:14;99926.13;;;5.53;100.00
51383;BME280;37475;43.358;1.248;2024-02-28T01:56:41;99917.06;;;5.48;100.00
51383;BME280;37475;43.358;1.248;2024-02-28T01:59:10;99913.56;;;5.52;100.00
51383;BME280;37475;43.358;1.248;2024-02-28T02:01:36;99913.66;;;5.49;100.00
51383;BME280;37475;43.358;1.248;2024-02-28T02:04:05;99912.88;;;5.46;100.00
51383;BME280;37475;43.358;1.248;2024-02-28T02:06:32;99922.22;;;5.44;100.00
51383;BME280;37475;43.358;1.248;2024-02-28T02:09:01;99923.84;;;5.45;100.00
51383;BME280;37475;43.358;1.248;2024-02-28T02:11:28;99919.66;;;5.46;100.00
51383;BME280;37475;43.358;1.248;2024-02-28T02:13:55;99905.06;;;5.27;100.00
51383;BME280;37475;43.358;1.248;2024-02-28T02:16:21;99932.13;;;5.51;100.00
51383;BME280;37475;43.358;1.248;2024-02-28T02:18:51;99919.66;;;5.46;100.00
51383;BME280;37475;43.358;1.248;2024-02-28T02:21:23;99924.78;;;5.43;100.00
51383;BME280;37475;43.358;1.248;2024-02-28T02:23:51;99870.63;;;5.00;100.00
51383;BME280;37475;43.358;1.248;2024-02-28T02:26:17;99920.84;;;5.34;100.00
51383;BME280;37475;43.358;1.248;2024-02-28T02:28:44;99931.59;;;5.41;100.00
51383;BME280;37475;43.358;1.248;2024-02-28T02:31:12;99932.31;;;5.44;100.00
51383;BME280;37475;43.358;1.248;2024-02-28T02:33:38;99923.94;;;5.42;100.00
51383;BME280;37475;43.358;1.248;2024-02-28T02:36:05;99932.31;;;5.44;100.00
51383;BME280;37475;43.358;1.248;2024-02-28T02:38:32;99923.19;;;5.40;100.00
51383;BME280;37475;43.358;1.248;2024-02-28T02:41:00;99937.34;;;5.44;100.00
51383;BME280;37475;43.358;1.248;2024-02-28T02:43:27;99919.78;;;5.41;100.00
51383;BME280;37475;43.358;1.248;2024-02-28T02:45:54;99914.69;;;5.43;100.00
51383;BME280;37475;43.358;1.248;2024-02-28T02:48:21;99916.50;;;5.39;100.00
51383;BME280;37475;43.358;1.248;2024-02-28T02:50:47;99919.84;;;5.40;100.00
51383;BME280;37475;43.358;1.248;2024-02-28T02:53:14;99828.00;;;4.92;100.00
51383;BME280;37475;43.358;1.248;2024-02-28T02:55:41;99929.00;;;5.42;100.00
51383;BME280;37475;43.358;1.248;2024-02-28T02:58:09;99926.63;;;5.38;100.00
51383;BME280;37475;43.358;1.248;2024-02-28T03:00:35;99924.97;;;5.37;100.00
51383;BME280;37475;43.358;1.248;2024-02-28T03:03:02;99894.25;;;5.24;100.00
51383;BME280;37475;43.358;1.248;2024-02-28T03:05:30;99926.53;;;5.41;100.00
51383;BME280;37475;43.358;1.248;2024-02-28T03:07:57;99912.31;;;5.38;100.00
51383;BME280;37475;43.358;1.248;2024-02-28T03:10:24;99918.13;;;5.40;100.00
51383;BME280;37475;43.358;1.248;2024-02-28T03:12:50;99923.19;;;5.40;100.00
51383;BME280;37475;43.358;1.248;2024-02-28T03:15:18;99905.06;;;5.27;100.00
51383;BME280;37475;43.358;1.248;2024-02-28T03:17:45;99932.50;;;5.38;100.00
51383;BME280;37475;43.358;1.248;2024-02-28T03:20:12;99848.34;;;4.86;100.00
51383;BME280;37475;43.358;1.248;2024-02-28T03:22:39;99930.66;;;5.43;100.00
51383;BME280;37475;43.358;1.248;2024-02-28T03:25:07;99928.22;;;5.40;100.00
51383;BME280;37475;43.358;1.248;2024-02-28T03:27:34;99934.94;;;5.41;100.00
51383;BME280;37475;43.358;1.248;2024-02-28T03:30:01;99939.97;;;5.41;100.00
51383;BME280;37475;43.358;1.248;2024-02-28T03:32:30;99890.56;;;5.07;100.00
51383;BME280;37475;43.358;1.248;2024-02-28T03:34:56;99915.31;;;5.23;100.00
51383;BME280;37475;43.358;1.248;2024-02-28T03:37:23;99949.31;;;5.39;100.00
51383;BME280;37475;43.358;1.248;2024-02-28T03:39:50;99944.31;;;5.38;100.00
51383;BME280;37475;43.358;1.248;2024-02-28T03:42:16;99962.69;;;5.41;100.00
51383;BME280;37475;43.358;1.248;2024-02-28T03:44:43;99955.97;;;5.40;100.00
51383;BME280;37475;43.358;1.248;2024-02-28T03:47:10;99955.97;;;5.40;100.00
51383;BME280;37475;43.358;1.248;2024-02-28T03:49:38;99963.47;;;5.43;100.00
51383;BME280;37475;43.358;1.248;2024-02-28T03:52:05;99969.38;;;5.42;100.00
51383;BME280;37475;43.358;1.248;2024-02-28T03:54:31;99969.53;;;5.38;100.00
51383;BME280;37475;43.358;1.248;2024-02-28T03:56:58;99955.41;;;5.32;100.00
51383;BME280;37475;43.358;1.248;2024-02-28T03:59:25;99947.34;;;5.21;100.00
51383;BME280;37475;43.358;1.248;2024-02-28T04:01:51;99965.34;;;5.37;100.00
51383;BME280;37475;43.358;1.248;2024-02-28T04:04:18;99951.53;;;5.22;100.00
51383;BME280;37475;43.358;1.248;2024-02-28T04:06:46;99982.97;;;5.38;100.00
51383;BME280;37475;43.358;1.248;2024-02-28T04:09:13;99972.09;;;5.36;100.00
51383;BME280;37475;43.358;1.248;2024-02-28T04:11:40;99974.81;;;5.30;100.00
51383;BME280;37475;43.358;1.248;2024-02-28T04:14:08;99969.75;;;5.30;100.00
51383;BME280;37475;43.358;1.248;2024-02-28T04:16:34;99965.50;;;5.32;100.00
51383;BME280;37475;43.358;1.248;2024-02-28T04:19:07;99973.91;;;5.31;100.00
51383;BME280;37475;43.358;1.248;2024-02-28T04:21:33;99958.28;;;5.20;100.00
51383;BME280;37475;43.358;1.248;2024-02-28T04:24:01;99963.25;;;5.23;100.00
51383;BME280;37475;43.358;1.248;2024-02-28T04:26:28;99975.00;;;5.24;100.00
51383;BME280;37475;43.358;1.248;2024-02-28T04:28:55;99956.84;;;5.13;100.00
51383;BME280;37475;43.358;1.248;2024-02-28T04:31:22;99973.34;;;5.23;100.00
51383;BME280;37475;43.358;1.248;2024-02-28T04:33:49;99981.69;;;5.25;100.00
51383;BME280;37475;43.358;1.248;2024-02-28T04:36:15;99974.91;;;5.27;100.00
51383;BME280;37475;43.358;1.248;2024-02-28T04:38:42;99988.47;;;5.23;100.00
51383;BME280;37475;43.358;1.248;2024-02-28T04:41:10;99955.31;;;5.07;100.00
51383;BME280;37475;43.358;1.248;2024-02-28T04:43:37;99978.66;;;5.14;100.00
51383;BME280;37475;43.358;1.248;2024-02-28T04:46:03;99987.75;;;5.19;100.00
51383;BME280;37475;43.358;1.248;2024-02-28T04:48:30;99981.78;;;5.22;100.00
51383;BME280;37475;43.358;1.248;2024-02-28T04:50:59;99941.56;;;4.89;100.00
51383;BME280;37475;43.358;1.248;2024-02-28T04:53:26;99985.25;;;5.18;100.00
51383;BME280;37475;43.358;1.248;2024-02-28T04:55:53;99988.72;;;5.14;100.00
51383;BME280;37475;43.358;1.248;2024-02-28T04:58:21;99990.31;;;5.18;100.00
51383;BME280;37475;43.358;1.248;2024-02-28T05:00:48;99992.00;;;5.17;100.00
51383;BME280;37475;43.358;1.248;2024-02-28T05:03:15;100005.34;;;5.21;100.00
51383;BME280;37475;43.358;1.248;2024-02-28T05:05:42;99998.66;;;5.20;100.00
51383;BME280;37475;43.358;1.248;2024-02-28T05:08:09;99991.09;;;5.20;100.00
51383;BME280;37475;43.358;1.248;2024-02-28T05:10:35;99968.38;;;4.91;100.00
51383;BME280;37475;43.358;1.248;2024-02-28T05:13:02;100004.63;;;5.17;100.00
51383;BME280;37475;43.358;1.248;2024-02-28T05:15:30;100007.28;;;5.13;100.00
51383;BME280;37475;43.358;1.248;2024-02-28T05:17:57;100009.84;;;5.11;100.00
51383;BME280;37475;43.358;1.248;2024-02-28T05:20:24;100013.28;;;5.08;100.00
51383;BME280;37475;43.358;1.248;2024-02-28T05:22:50;100022.50;;;5.09;100.00
51383;BME280;37475;43.358;1.248;2024-02-28T05:25:17;100017.53;;;5.06;100.00
51383;BME280;37475;43.358;1.248;2024-02-28T05:27:44;100015.97;;;5.02;100.00
51383;BME280;37475;43.358;1.248;2024-02-28T05:30:11;99961.47;;;4.68;100.00
51383;BME280;37475;43.358;1.248;2024-02-28T05:32:39;100027.72;;;5.03;100.00
51383;BME280;37475;43.358;1.248;2024-02-28T05:35:06;100024.44;;;5.01;100.00
51383;BME280;37475;43.358;1.248;2024-02-28T05:37:36;100030.19;;;5.05;100.00
51383;BME280;37475;43.358;1.248;2024-02-28T05:40:04;100035.31;;;5.02;100.00
51383;BME280;37475;43.358;1.248;2024-02-28T05:42:32;100032.13;;;4.97;100.00
51383;BME280;37475;43.358;1.248;2024-02-28T05:44:59;100027.84;;;4.99;100.00
51383;BME280;37475;43.358;1.248;2024-02-28T05:47:26;100025.38;;;4.97;100.00
51383;BME280;37475;43.358;1.248;2024-02-28T05:49:55;100034.75;;;4.92;100.00
51383;BME280;37475;43.358;1.248;2024-02-28T05:52:23;100027.19;;;4.92;100.00
51383;BME280;37475;43.358;1.248;2024-02-28T05:54:50;100027.16;;;4.94;100.00
51383;BME280;37475;43.358;1.248;2024-02-28T05:57:17;100036.44;;;4.93;100.00
51383;BME280;37475;43.358;1.248;2024-02-28T05:59:43;100034.75;;;4.92;100.00
51383;BME280;37475;43.358;1.248;2024-02-28T06:02:10;100044.84;;;4.92;100.00
51383;BME280;37475;43.358;1.248;2024-02-28T06:04:37;100043.09;;;4.94;100.00
51383;BME280;37475;43.358;1.248;2024-02-28T06:07:06;100052.41;;;4.92;100.00
51383;BME280;37475;43.358;1.248;2024-02-28T06:09:32;100042.41;;;4.89;100.00
51383;BME280;37475;43.358;1.248;2024-02-28T06:11:59;100055.03;;;4.89;100.00
51383;BME280;37475;43.358;1.248;2024-02-28T06:14:27;100060.16;;;4.86;100.00
51383;BME280;37475;43.358;1.248;2024-02-28T06:16:53;100066.75;;;4.90;100.00
51383;BME280;37475;43.358;1.248;2024-02-28T06:19:20;100070.31;;;4.83;100.00
51383;BME280;37475;43.358;1.248;2024-02-28T06:21:47;100072.72;;;4.87;100.00
51383;BME280;37475;43.358;1.248;2024-02-28T06:24:15;100073.53;;;4.88;100.00
51383;BME280;37475;43.358;1.248;2024-02-28T06:26:41;100077.84;;;4.84;100.00
51383;BME280;37475;43.358;1.248;2024-02-28T06:29:08;100078.47;;;4.91;100.00
51383;BME280;37475;43.358;1.248;2024-02-28T06:31:35;100073.44;;;4.91;100.00
51383;BME280;37475;43.358;1.248;2024-02-28T06:34:03;100067.09;;;4.78;100.00
51383;BME280;37475;43.358;1.248;2024-02-28T06:36:29;100076.09;;;4.86;100.00
51383;BME280;37475;43.358;1.248;2024-02-28T06:38:56;100080.41;;;4.83;100.00
51383;BME280;37475;43.358;1.248;2024-02-28T06:41:24;100072.78;;;4.84;100.00
51383;BME280;37475;43.358;1.248;2024-02-28T06:43:51;100081.16;;;4.85;100.00
51383;BME280;37475;43.358;1.248;2024-02-28T06:46:17;100080.31;;;4.86;100.00
51383;BME280;37475;43.358;1.248;2024-02-28T06:48:44;100079.72;;;4.76;100.00
51383;BME280;37475;43.358;1.248;2024-02-28T06:51:11;100092.91;;;4.86;100.00
51383;BME280;37475;43.358;1.248;2024-02-28T06:53:37;100098.75;;;4.88;100.00
51383;BME280;37475;43.358;1.248;2024-02-28T06:56:04;100105.53;;;4.86;100.00
51383;BME280;37475;43.358;1.248;2024-02-28T06:58:33;100107.19;;;4.87;100.00
51383;BME280;37475;43.358;1.248;2024-02-28T07:00:59;100118.28;;;4.80;100.00
51383;BME280;37475;43.358;1.248;2024-02-28T07:03:26;100115.63;;;4.86;100.00
51383;BME280;37475;43.358;1.248;2024-02-28T07:05:53;100094.78;;;4.79;100.00
51383;BME280;37475;43.358;1.248;2024-02-28T07:08:20;100124.03;;;4.85;100.00
51383;BME280;37475;43.358;1.248;2024-02-28T07:10:47;100110.66;;;4.83;100.00
51383;BME280;37475;43.358;1.248;2024-02-28T07:13:18;100117.28;;;4.87;100.00
51383;BME280;37475;43.358;1.248;2024-02-28T07:15:47;100093.13;;;4.78;100.00
51383;BME280;37475;43.358;1.248;2024-02-28T07:18:14;100107.88;;;4.92;100.00
51383;BME280;37475;43.358;1.248;2024-02-28T07:20:41;100098.78;;;4.86;100.00
51383;BME280;37475;43.358;1.248;2024-02-28T07:23:07;100108.81;;;4.88;100.00
51383;BME280;37475;43.358;1.248;2024-02-28T07:25:34;100113.78;;;4.91;100.00
51383;BME280;37475;43.358;1.248;2024-02-28T07:28:01;100112.16;;;4.90;100.00
51383;BME280;37475;43.358;1.248;2024-02-28T07:30:28;100108.66;;;4.94;100.00
51383;BME280;37475;43.358;1.248;2024-02-28T07:32:56;100118.66;;;4.97;100.00
51383;BME280;37475;43.358;1.248;2024-02-28T07:35:23;100119.44;;;4.99;100.00
51383;BME280;37475;43.358;1.248;2024-02-28T07:37:50;100103.63;;;4.94;100.00
51383;BME280;37475;43.358;1.248;2024-02-28T07:40:17;100117.84;;;4.97;100.00
51383;BME280;37475;43.358;1.248;2024-02-28T07:42:44;100123.47;;;5.06;100.00
51383;BME280;37475;43.358;1.248;2024-02-28T07:45:10;100126.78;;;5.08;100.00
51383;BME280;37475;43.358;1.248;2024-02-28T07:47:37;100138.44;;;5.13;100.00
51383;BME280;37475;43.358;1.248;2024-02-28T07:50:07;100135.88;;;5.14;100.00
51383;BME280;37475;43.358;1.248;2024-02-28T07:52:34;100136.63;;;5.18;100.00
51383;BME280;37475;43.358;1.248;2024-02-28T07:55:02;100139.97;;;5.18;100.00
51383;BME280;37475;43.358;1.248;2024-02-28T07:57:31;100132.78;;;5.04;100.00
51383;BME280;37475;43.358;1.248;2024-02-28T07:59:58;100118.44;;;5.06;100.00
51383;BME280;37475;43.358;1.248;2024-02-28T08:02:25;100146.56;;;5.24;100.00
51383;BME280;37475;43.358;1.248;2024-02-28T08:04:52;100154.03;;;5.27;100.00
51383;BME280;37475;43.358;1.248;2024-02-28T08:07:20;100151.50;;;5.27;100.00
51383;BME280;37475;43.358;1.248;2024-02-28T08:09:46;100161.53;;;5.30;100.00
51383;BME280;37475;43.358;1.248;2024-02-28T08:12:13;100167.38;;;5.31;100.00
51383;BME280;37475;43.358;1.248;2024-02-28T08:14:40;100149.06;;;5.24;100.00
51383;BME280;37475;43.358;1.248;2024-02-28T08:17:06;100171.53;;;5.33;100.00
51383;BME280;37475;43.358;1.248;2024-02-28T08:19:33;100179.97;;;5.32;100.00
51383;BME280;37475;43.358;1.248;2024-02-28T08:22:00;100178.28;;;5.31;100.00
51383;BME280;37475;43.358;1.248;2024-02-28T08:24:28;100179.97;;;5.32;100.00
51383;BME280;37475;43.358;1.248;2024-02-28T08:26:55;100181.63;;;5.33;100.00
51383;BME280;37475;43.358;1.248;2024-02-28T08:29:22;100193.34;;;5.34;100.00
51383;BME280;37475;43.358;1.248;2024-02-28T08:31:48;100188.16;;;5.40;100.00
51383;BME280;37475;43.358;1.248;2024-02-28T08:34:15;100189.72;;;5.44;100.00
51383;BME280;37475;43.358;1.248;2024-02-28T08:36:43;100143.50;;;5.13;100.00
51383;BME280;37475;43.358;1.248;2024-02-28T08:39:09;100191.28;;;5.49;100.00
51383;BME280;37475;43.358;1.248;2024-02-28T08:41:38;100199.56;;;5.54;100.00
51383;BME280;37475;43.358;1.248;2024-02-28T08:44:04;100202.78;;;5.59;100.00
51383;BME280;37475;43.358;1.248;2024-02-28T08:46:31;100179.47;;;5.51;100.00
51383;BME280;37475;43.358;1.248;2024-02-28T08:48:58;100208.53;;;5.64;100.00
51383;BME280;37475;43.358;1.248;2024-02-28T08:51:24;100200.72;;;5.73;100.00
51383;BME280;37475;43.358;1.248;2024-02-28T08:53:52;100214.09;;;5.75;99.55
51383;BME280;37475;43.358;1.248;2024-02-28T08:56:20;100200.44;;;5.82;100.00
51383;BME280;37475;43.358;1.248;2024-02-28T08:58:48;100196.34;;;5.78;100.00
51383;BME280;37475;43.358;1.248;2024-02-28T09:01:15;100193.38;;;5.94;100.00
51383;BME280;37475;43.358;1.248;2024-02-28T09:03:42;100169.03;;;5.91;99.15
51383;BME280;37475;43.358;1.248;2024-02-28T09:06:09;100192.38;;;6.28;96.61
51383;BME280;37475;43.358;1.248;2024-02-28T09:08:35;100206.47;;;6.35;94.27
51383;BME280;37475;43.358;1.248;2024-02-28T09:11:02;100181.19;;;6.62;98.67
51383;BME280;37475;43.358;1.248;2024-02-28T09:13:30;100184.19;;;6.73;98.24
51383;BME280;37475;43.358;1.248;2024-02-28T09:15:58;100187.53;;;6.75;94.55
51383;BME280;37475;43.358;1.248;2024-02-28T09:18:25;100187.44;;;6.78;95.15
51383;BME280;37475;43.358;1.248;2024-02-28T09:20:51;100181.03;;;6.93;96.11
51383;BME280;37475;43.358;1.248;2024-02-28T09:23:18;100173.69;;;6.85;91.26
51383;BME280;37475;43.358;1.248;2024-02-28T09:25:45;100172.50;;;6.96;94.32
51383;BME280;37475;43.358;1.248;2024-02-28T09:28:12;100177.31;;;6.78;91.42
51383;BME280;37475;43.358;1.248;2024-02-28T09:30:41;100181.94;;;6.90;92.06
51383;BME280;37475;43.358;1.248;2024-02-28T09:33:09;100186.06;;;6.68;91.67
51383;BME280;37475;43.358;1.248;2024-02-28T09:35:36;100175.34;;;6.86;93.64
51383;BME280;37475;43.358;1.248;2024-02-28T09:38:03;100137.34;;;6.88;92.17
51383;BME280;37475;43.358;1.248;2024-02-28T09:40:30;100165.53;;;7.02;92.51
51383;BME280;37475;43.358;1.248;2024-02-28T09:43:00;100195.44;;;6.91;90.53
51383;BME280;37475;43.358;1.248;2024-02-28T09:45:28;100171.91;;;7.13;92.06
51383;BME280;37475;43.358;1.248;2024-02-28T09:47:56;100165.94;;;7.15;88.42
51383;BME280;37475;43.358;1.248;2024-02-28T09:50:25;100170.56;;;7.27;90.22
51383;BME280;37475;43.358;1.248;2024-02-28T09:52:52;100156.19;;;7.28;89.64
51383;BME280;37475;43.358;1.248;2024-02-28T09:55:19;100156.47;;;7.44;89.17
51383;BME280;37475;43.358;1.248;2024-02-28T09:57:47;100161.31;;;7.50;88.55
51383;BME280;37475;43.358;1.248;2024-02-28T10:00:16;100144.47;;;7.49;90.72
51383;BME280;37475;43.358;1.248;2024-02-28T10:02:45;100155.34;;;7.75;88.29
51383;BME280;37475;43.358;1.248;2024-02-28T10:05:13;100150.16;;;7.78;82.16
51383;BME280;37475;43.358;1.248;2024-02-28T10:07:42;100156.63;;;7.63;86.86
51383;BME280;37475;43.358;1.248;2024-02-28T10:10:09;100144.63;;;7.68;81.41
51383;BME280;37475;43.358;1.248;2024-02-28T10:12:35;100157.13;;;7.73;82.13
51383;BME280;37475;43.358;1.248;2024-02-28T10:15:01;100147.84;;;7.72;81.93
51383;BME280;37475;43.358;1.248;2024-02-28T10:17:28;100142.03;;;7.70;83.24
51383;BME280;37475;43.358;1.248;2024-02-28T10:19:58;100141.28;;;7.68;81.20
51383;BME280;37475;43.358;1.248;2024-02-28T10:22:25;100143.78;;;8.12;76.89
51383;BME280;37475;43.358;1.248;2024-02-28T10:24:57;100150.97;;;8.00;74.15
51383;BME280;37475;43.358;1.248;2024-02-28T10:27:24;100150.75;;;8.07;77.34
51383;BME280;37475;43.358;1.248;2024-02-28T10:29:51;100153.50;;;8.45;79.78
51383;BME280;37475;43.358;1.248;2024-02-28T10:32:18;100173.94;;;8.40;77.15
51383;BME280;37475;43.358;1.248;2024-02-28T10:34:45;100149.19;;;8.47;79.21
51383;BME280;37475;43.358;1.248;2024-02-28T10:37:13;100156.56;;;8.73;78.24
51383;BME280;37475;43.358;1.248;2024-02-28T10:39:41;100150.03;;;8.25;75.10
51383;BME280;37475;43.358;1.248;2024-02-28T10:42:11;100177.41;;;8.17;76.14
51383;BME280;37475;43.358;1.248;2024-02-28T10:44:39;100179.25;;;8.56;77.24
51383;BME280;37475;43.358;1.248;2024-02-28T10:47:08;100162.59;;;9.11;77.88
51383;BME280;37475;43.358;1.248;2024-02-28T10:49:34;100154.16;;;8.70;72.18
51383;BME280;37475;43.358;1.248;2024-02-28T10:52:03;100194.88;;;8.88;72.39
51383;BME280;37475;43.358;1.248;2024-02-28T10:54:31;100212.88;;;9.02;71.72
51383;BME280;37475;43.358;1.248;2024-02-28T10:57:00;100184.28;;;8.99;71.22
51383;BME280;37475;43.358;1.248;2024-02-28T10:59:29;100191.41;;;8.90;68.78
51383;BME280;37475;43.358;1.248;2024-02-28T11:01:58;100192.13;;;9.13;71.59
51383;BME280;37475;43.358;1.248;2024-02-28T11:04:25;100188.97;;;9.08;67.95
51383;BME280;37475;43.358;1.248;2024-02-28T11:06:54;100181.41;;;9.27;70.45
51383;BME280;37475;43.358;1.248;2024-02-28T11:09:22;100184.25;;;9.19;71.67
51383;BME280;37475;43.358;1.248;2024-02-28T11:11:49;100175.63;;;9.42;68.60
51383;BME280;37475;43.358;1.248;2024-02-28T11:14:16;100178.44;;;9.74;68.93
51383;BME280;37475;43.358;1.248;2024-02-28T11:16:58;100174.69;;;9.64;66.76
51383;BME280;37475;43.358;1.248;2024-02-28T11:19:28;100159.56;;;9.61;69.22
51383;BME280;37475;43.358;1.248;2024-02-28T11:21:55;100163.78;;;9.79;72.92
51383;BME280;37475;43.358;1.248;2024-02-28T11:24:23;100143.78;;;9.73;67.29
51383;BME280;37475;43.358;1.248;2024-02-28T11:26:51;100143.31;;;9.82;71.20
51383;BME280;37475;43.358;1.248;2024-02-28T11:29:21;100145.16;;;9.98;66.69
51383;BME280;37475;43.358;1.248;2024-02-28T11:31:50;100147.69;;;9.98;64.29
51383;BME280;37475;43.358;1.248;2024-02-28T11:34:16;100146.53;;;10.23;67.76
51383;BME280;37475;43.358;1.248;2024-02-28T11:36:43;100140.38;;;10.46;66.64
51383;BME280;37475;43.358;1.248;2024-02-28T11:39:13;100150.75;;;10.76;67.35
51383;BME280;37475;43.358;1.248;2024-02-28T11:41:39;100161.53;;;10.64;62.06
51383;BME280;37475;43.358;1.248;2024-02-28T11:44:06;100136.06;;;10.29;62.30
51383;BME280;37475;43.358;1.248;2024-02-28T11:46:33;100149.59;;;10.48;61.39
51383;BME280;37475;43.358;1.248;2024-02-28T11:49:02;100139.00;;;10.56;62.36
51383;BME280;37475;43.358;1.248;2024-02-28T11:51:31;100159.56;;;10.69;64.83
51383;BME280;37475;43.358;1.248;2024-02-28T11:54:01;100151.16;;;11.02;65.12
51383;BME280;37475;43.358;1.248;2024-02-28T11:56:28;100157.00;;;10.86;59.80
51383;BME280;37475;43.358;1.248;2024-02-28T11:58:54;100150.25;;;11.03;62.30
51383;BME280;37475;43.358;1.248;2024-02-28T12:01:35;100124.75;;;11.20;60.09
51383;BME280;37475;43.358;1.248;2024-02-28T12:04:04;100165.91;;;10.95;54.60
51383;BME280;37475;43.358;1.248;2024-02-28T12:06:32;100169.56;;;11.07;56.75
51383;BME280;37475;43.358;1.248;2024-02-28T12:09:00;100149.34;;;11.04;56.22
51383;BME280;37475;43.358;1.248;2024-02-28T12:11:27;100150.03;;;11.07;56.29
51383;BME280;37475;43.358;1.248;2024-02-28T12:13:54;100146.75;;;11.37;56.48
51383;BME280;37475;43.358;1.248;2024-02-28T12:16:22;100141.66;;;11.21;57.03
51383;BME280;37475;43.358;1.248;2024-02-28T12:18:49;100133.22;;;11.37;56.18
51383;BME280;37475;43.358;1.248;2024-02-28T12:21:17;100136.72;;;11.18;56.17
51383;BME280;37475;43.358;1.248;2024-02-28T12:23:44;100130.50;;;11.56;56.36
51383;BME280;37475;43.358;1.248;2024-02-28T12:26:11;100131.63;;;11.98;55.10
51383;BME280;37475;43.358;1.248;2024-02-28T12:28:38;100114.25;;;11.58;51.75
51383;BME280;37475;43.358;1.248;2024-02-28T12:31:05;100121.84;;;11.90;54.83
51383;BME280;37475;43.358;1.248;2024-02-28T12:33:34;100127.22;;;11.38;55.77
51383;BME280;37475;43.358;1.248;2024-02-28T12:36:01;100131.41;;;11.39;54.27
51383;BME280;37475;43.358;1.248;2024-02-28T12:38:31;100128.19;;;11.99;53.56
51383;BME280;37475;43.358;1.248;2024-02-28T12:40:57;100139.19;;;11.99;50.99
51383;BME280;37475;43.358;1.248;2024-02-28T12:43:24;100126.28;;;11.87;54.68
51383;BME280;37475;43.358;1.248;2024-02-28T12:45:51;100126.31;;;11.39;54.44
51383;BME280;37475;43.358;1.248;2024-02-28T12:48:18;100132.66;;;11.63;54.92
51383;BME280;37475;43.358;1.248;2024-02-28T12:50:45;100111.34;;;11.33;52.90
51383;BME280;37475;43.358;1.248;2024-02-28T12:53:11;100102.38;;;11.25;51.81
51383;BME280;37475;43.358;1.248;2024-02-28T12:55:40;100113.38;;;11.74;52.60